Time;durP1;ratioP1;P1;durP2;ratioP2;P2;SDS_P1;SDS_P2;PMS_P1;PMS_P2;Temp;Humidity;BMP_temperature;BMP_pressure;BME280_temperature;BME280_humidity;BME280_pressure;Samples;Min_cycle;Max_cycle;Signal;HPM_P1;HPM_P2
2021/08/23 00:00:16;;;;;;;11.95;9.88;;;16.50;99.90;;;;;;5101538;28;21054;-66
2021/08/23 00:02:42;;;;;;;10.75;9.55;;;16.40;99.90;;;;;;5099734;28;20383;-66
2021/08/23 00:05:09;;;;;;;11.38;9.63;;;16.50;99.90;;;;;;5097785;28;20086;-66
2021/08/23 00:07:35;;;;;;;11.80;9.35;;;16.40;99.90;;;;;;5102313;28;20101;-66
2021/08/23 00:10:01;;;;;;;11.85;9.43;;;16.40;99.90;;;;;;5100327;28;20486;-66
2021/08/23 00:12:27;;;;;;;13.27;9.90;;;16.40;99.90;;;;;;5100298;28;20051;-66
2021/08/23 00:14:53;;;;;;;13.43;10.10;;;16.40;99.90;;;;;;5102902;28;20040;-66
2021/08/23 00:17:19;;;;;;;10.48;8.95;;;16.40;99.90;;;;;;5100637;28;20650;-66
2021/08/23 00:19:45;;;;;;;10.80;9.70;;;16.40;99.90;;;;;;5103729;28;20049;-66
2021/08/23 00:22:30;;;;;;;11.77;9.10;;;16.40;99.90;;;;;;5102136;28;20395;-66
2021/08/23 00:24:56;;;;;;;9.13;8.15;;;16.40;99.90;;;;;;5103517;27;20054;-66
2021/08/23 00:27:22;;;;;;;9.23;8.27;;;16.30;99.90;;;;;;5103676;28;20107;-66
2021/08/23 00:29:48;;;;;;;13.55;8.50;;;16.40;99.90;;;;;;5097474;28;20110;-66
2021/08/23 00:32:15;;;;;;;9.85;7.93;;;16.40;99.90;;;;;;5104222;28;20650;-66
2021/08/23 00:34:41;;;;;;;12.40;8.88;;;16.40;99.90;;;;;;5106468;27;20043;-66
2021/08/23 00:37:07;;;;;;;10.77;9.07;;;16.40;99.90;;;;;;5108985;28;20048;-66
2021/08/23 00:39:34;;;;;;;13.13;9.18;;;16.40;99.90;;;;;;5102231;28;20044;-66
2021/08/23 00:42:01;;;;;;;11.45;9.15;;;16.40;99.90;;;;;;5101642;28;20086;-66
2021/08/23 00:44:27;;;;;;;12.43;9.85;;;16.40;99.90;;;;;;5103127;28;20040;-66
2021/08/23 00:46:53;;;;;;;10.32;9.25;;;16.40;99.90;;;;;;5100808;28;20036;-66
2021/08/23 00:49:19;;;;;;;11.52;9.95;;;16.40;99.90;;;;;;5107247;28;20079;-66
2021/08/23 00:51:44;;;;;;;10.77;9.57;;;16.40;99.90;;;;;;5103781;28;20530;-66
2021/08/23 00:54:11;;;;;;;15.13;10.32;;;16.40;99.90;;;;;;5103162;28;20039;-66
2021/08/23 00:56:37;;;;;;;15.20;9.75;;;16.40;99.90;;;;;;5102310;27;20082;-66
2021/08/23 00:59:08;;;;;;;12.50;9.57;;;16.40;99.90;;;;;;5105638;27;20044;-66
2021/08/23 01:01:47;;;;;;;11.90;9.48;;;16.40;99.90;;;;;;5101152;28;20039;-66
2021/08/23 01:04:35;;;;;;;11.35;9.07;;;16.40;99.90;;;;;;5102569;28;20409;-66
2021/08/23 01:07:03;;;;;;;11.63;9.32;;;16.50;99.90;;;;;;5107135;28;20058;-66
2021/08/23 01:09:33;;;;;;;14.75;10.68;;;16.40;99.90;;;;;;5103413;28;20413;-66
2021/08/23 01:12:01;;;;;;;14.48;10.50;;;16.40;99.90;;;;;;5102524;28;20043;-66
2021/08/23 01:14:27;;;;;;;14.68;10.32;;;16.40;99.90;;;;;;5102327;28;20397;-66
2021/08/23 01:16:53;;;;;;;12.55;9.73;;;16.40;99.90;;;;;;5097694;28;20036;-66
2021/08/23 01:19:24;;;;;;;14.75;10.27;;;16.40;99.90;;;;;;5095578;28;20039;-66
2021/08/23 01:21:53;;;;;;;12.30;10.00;;;16.50;99.90;;;;;;5093832;28;20031;-66
2021/08/23 01:24:20;;;;;;;15.98;10.25;;;16.50;99.90;;;;;;5094548;28;20441;-66
2021/08/23 01:26:49;;;;;;;13.32;10.30;;;16.50;99.90;;;;;;5094064;28;23801;-66
2021/08/23 01:29:26;;;;;;;12.77;9.20;;;16.50;99.90;;;;;;5095603;28;20035;-66
2021/08/23 01:32:22;;;;;;;15.55;9.45;;;16.50;99.90;;;;;;5094532;28;20050;-66
2021/08/23 01:34:49;;;;;;;14.80;9.82;;;16.50;99.90;;;;;;5095304;28;20040;-66
2021/08/23 01:37:19;;;;;;;12.40;9.38;;;16.50;99.90;;;;;;5095389;28;20063;-66
2021/08/23 01:39:45;;;;;;;14.07;8.95;;;16.50;99.90;;;;;;5097580;28;20155;-66
2021/08/23 01:42:11;;;;;;;12.85;9.23;;;16.50;99.90;;;;;;5093227;28;20529;-66
2021/08/23 01:44:37;;;;;;;11.50;8.52;;;16.50;99.90;;;;;;5093501;28;20162;-66
2021/08/23 01:47:03;;;;;;;15.02;8.75;;;16.40;99.90;;;;;;5094277;28;20142;-66
2021/08/23 01:49:29;;;;;;;12.75;8.45;;;16.40;99.90;;;;;;5094567;28;20342;-66
2021/08/23 01:51:54;;;;;;;10.52;8.27;;;16.50;99.90;;;;;;5101155;27;20043;-66
2021/08/23 01:54:20;;;;;;;11.93;8.75;;;16.40;99.90;;;;;;5099117;28;20089;-66
2021/08/23 01:56:46;;;;;;;10.80;8.60;;;16.50;99.90;;;;;;5094567;27;20432;-66
2021/08/23 01:59:12;;;;;;;15.85;7.78;;;16.40;99.90;;;;;;5092070;28;20064;-66
2021/08/23 02:01:37;;;;;;;12.30;6.93;;;16.50;99.90;;;;;;5097415;28;20036;-66
2021/08/23 02:04:03;;;;;;;10.75;6.95;;;16.40;99.90;;;;;;5098395;28;20075;-66
2021/08/23 02:06:29;;;;;;;10.80;7.75;;;16.40;99.90;;;;;;5096734;28;20533;-66
2021/08/23 02:08:55;;;;;;;11.93;6.75;;;16.40;99.90;;;;;;5098103;28;20028;-66
2021/08/23 02:11:25;;;;;;;10.98;7.85;;;16.40;99.90;;;;;;5092948;28;20044;-66
2021/08/23 02:13:54;;;;;;;14.07;8.50;;;16.40;99.90;;;;;;5097311;28;20050;-66
2021/08/23 02:16:21;;;;;;;7.68;6.60;;;16.40;99.90;;;;;;5100270;28;20134;-66
2021/08/23 02:18:47;;;;;;;13.77;8.10;;;16.40;99.90;;;;;;5096673;27;20100;-66
2021/08/23 02:21:13;;;;;;;11.82;7.85;;;16.50;99.90;;;;;;5091836;28;20481;-66
2021/08/23 02:23:40;;;;;;;10.13;7.38;;;16.40;99.90;;;;;;5094268;28;20116;-66
2021/08/23 02:26:05;;;;;;;13.10;7.60;;;16.40;99.90;;;;;;5097260;28;20036;-66
2021/08/23 02:28:31;;;;;;;11.52;7.55;;;16.40;99.90;;;;;;5094929;28;20043;-66
2021/08/23 02:30:57;;;;;;;9.63;6.63;;;16.40;99.90;;;;;;5099389;28;20046;-66
2021/08/23 02:33:22;;;;;;;13.88;6.38;;;16.40;99.90;;;;;;5101549;28;20115;-66
2021/08/23 02:35:48;;;;;;;6.85;5.57;;;16.40;99.90;;;;;;5103948;28;20038;-66
2021/08/23 02:38:14;;;;;;;12.20;6.50;;;16.40;99.90;;;;;;5100769;28;20035;-66
2021/08/23 02:40:40;;;;;;;8.98;5.90;;;16.40;99.90;;;;;;5099700;28;20047;-66
2021/08/23 02:43:05;;;;;;;11.35;6.50;;;16.40;99.90;;;;;;5100067;28;20559;-66
2021/08/23 02:45:32;;;;;;;11.52;6.03;;;16.40;99.90;;;;;;5102002;27;20042;-66
2021/08/23 02:47:58;;;;;;;10.00;6.38;;;16.30;99.90;;;;;;5100669;28;20405;-66
2021/08/23 02:50:23;;;;;;;9.23;5.85;;;16.30;99.90;;;;;;5101178;28;20039;-66
2021/08/23 02:52:49;;;;;;;10.30;6.00;;;16.20;99.90;;;;;;5102324;28;20035;-66
2021/08/23 02:55:15;;;;;;;7.97;5.30;;;16.20;99.90;;;;;;5100327;28;20040;-66
2021/08/23 02:57:40;;;;;;;9.30;5.70;;;16.20;99.90;;;;;;5099847;28;20599;-66
2021/08/23 03:00:08;;;;;;;11.27;5.57;;;16.20;99.90;;;;;;5102196;28;20038;-66
2021/08/23 03:02:34;;;;;;;9.20;5.00;;;16.20;99.90;;;;;;5102497;28;20042;-66
2021/08/23 03:05:00;;;;;;;11.48;5.38;;;16.20;99.90;;;;;;5100574;28;20047;-66
2021/08/23 03:07:27;;;;;;;8.20;5.40;;;16.20;99.90;;;;;;5099733;28;20113;-66
2021/08/23 03:09:53;;;;;;;8.75;5.25;;;16.20;99.90;;;;;;5096088;28;20603;-66
2021/08/23 03:12:19;;;;;;;12.65;5.18;;;16.20;99.90;;;;;;5100390;28;20031;-66
2021/08/23 03:14:45;;;;;;;7.95;4.22;;;16.20;99.90;;;;;;5096506;28;20039;-66
2021/08/23 03:17:10;;;;;;;8.15;4.40;;;16.20;99.90;;;;;;5105064;28;20039;-66
2021/08/23 03:19:36;;;;;;;10.70;4.57;;;16.20;99.90;;;;;;5103141;28;20039;-66
2021/08/23 03:22:02;;;;;;;8.55;4.80;;;16.20;99.90;;;;;;5097715;28;20039;-66
2021/08/23 03:24:28;;;;;;;10.75;4.47;;;16.20;99.90;;;;;;5099572;28;20032;-66
2021/08/23 03:26:54;;;;;;;7.55;4.25;;;16.20;99.90;;;;;;5100437;28;20389;-66
2021/08/23 03:29:20;;;;;;;10.32;4.25;;;16.20;99.90;;;;;;5099817;28;20417;-66
2021/08/23 03:31:46;;;;;;;10.15;4.00;;;16.20;99.90;;;;;;5101323;28;20032;-66
2021/08/23 03:34:13;;;;;;;7.28;4.35;;;16.20;99.90;;;;;;5101586;28;20036;-66
2021/08/23 03:36:40;;;;;;;6.15;3.45;;;16.20;99.90;;;;;;5104692;27;20051;-66
2021/08/23 03:39:07;;;;;;;6.75;3.72;;;16.20;99.90;;;;;;5104346;27;20042;-66
2021/08/23 03:41:34;;;;;;;11.25;4.90;;;16.20;99.90;;;;;;5100090;28;20103;-66
2021/08/23 03:44:00;;;;;;;9.40;4.05;;;16.10;99.90;;;;;;5100540;27;20096;-66
2021/08/23 03:46:28;;;;;;;9.50;3.28;;;16.10;99.90;;;;;;5098081;28;20085;-66
2021/08/23 03:48:54;;;;;;;6.00;3.70;;;16.10;99.90;;;;;;5104253;28;20039;-66
2021/08/23 03:51:20;;;;;;;9.45;4.07;;;16.20;99.90;;;;;;5101087;28;20088;-67
2021/08/23 03:53:46;;;;;;;12.55;3.90;;;16.20;99.90;;;;;;5103178;28;20133;-66
2021/08/23 03:56:12;;;;;;;9.85;3.92;;;16.20;99.90;;;;;;5097342;28;20497;-66
2021/08/23 03:58:37;;;;;;;6.32;4.10;;;16.10;99.90;;;;;;5104476;28;20039;-66
2021/08/23 04:01:03;;;;;;;10.00;4.05;;;16.10;99.90;;;;;;5104846;28;20490;-66
2021/08/23 04:03:32;;;;;;;10.07;4.28;;;16.10;99.90;;;;;;5099526;28;20176;-66
2021/08/23 04:05:57;;;;;;;7.00;4.10;;;16.10;99.90;;;;;;5102516;28;20134;-66
2021/08/23 04:08:23;;;;;;;5.88;3.65;;;16.10;99.90;;;;;;5096624;28;20119;-66
2021/08/23 04:10:48;;;;;;;6.85;3.67;;;16.10;99.90;;;;;;5097619;28;20036;-66
2021/08/23 04:13:15;;;;;;;5.45;3.65;;;16.10;99.90;;;;;;5100511;28;20059;-66
2021/08/23 04:15:45;;;;;;;11.80;3.78;;;16.10;99.90;;;;;;5103116;28;20025;-66
2021/08/23 04:18:11;;;;;;;12.07;5.05;;;16.00;99.90;;;;;;5096950;28;20063;-66
2021/08/23 04:20:37;;;;;;;9.23;4.50;;;16.00;99.90;;;;;;5100828;28;20043;-66
2021/08/23 04:23:03;;;;;;;8.90;5.03;;;16.00;99.90;;;;;;5102541;28;20056;-66
2021/08/23 04:25:29;;;;;;;11.43;4.82;;;16.00;99.90;;;;;;5097037;28;20051;-66
2021/08/23 04:27:54;;;;;;;8.18;4.80;;;16.00;99.90;;;;;;5100165;28;20046;-66
2021/08/23 04:30:20;;;;;;;9.80;4.70;;;15.90;99.90;;;;;;5096593;28;20032;-66
2021/08/23 04:32:46;;;;;;;7.07;5.03;;;15.80;99.90;;;;;;5095268;28;20055;-66
2021/08/23 04:35:11;;;;;;;6.85;4.75;;;15.90;99.90;;;;;;5103390;28;20493;-66
2021/08/23 04:37:37;;;;;;;8.75;5.68;;;15.80;99.90;;;;;;5098723;28;20038;-66
2021/08/23 04:40:03;;;;;;;10.13;5.53;;;15.80;99.90;;;;;;5095959;28;20074;-66
2021/08/23 04:42:29;;;;;;;9.90;6.20;;;15.80;99.90;;;;;;5103385;28;20351;-66
2021/08/23 04:44:55;;;;;;;11.55;5.53;;;15.70;99.90;;;;;;5093551;28;20043;-66
2021/08/23 04:47:20;;;;;;;11.93;6.15;;;15.80;99.90;;;;;;5099885;28;20093;-66
2021/08/23 04:49:46;;;;;;;7.18;4.47;;;15.80;99.90;;;;;;5100187;28;20039;-66
2021/08/23 04:52:12;;;;;;;7.28;4.65;;;15.80;99.90;;;;;;5104082;28;20110;-66
2021/08/23 04:54:38;;;;;;;7.18;4.45;;;15.80;99.90;;;;;;5101067;28;20035;-66
2021/08/23 04:57:03;;;;;;;9.20;4.97;;;15.80;99.90;;;;;;5097706;28;20504;-66
2021/08/23 04:59:29;;;;;;;15.88;5.28;;;15.70;99.90;;;;;;5104018;28;20040;-66
2021/08/23 05:01:55;;;;;;;10.40;4.80;;;15.70;99.90;;;;;;5100877;28;20067;-66
2021/08/23 05:04:21;;;;;;;13.65;5.47;;;15.80;99.90;;;;;;5107712;28;20058;-66
2021/08/23 05:06:47;;;;;;;9.40;4.95;;;15.70;99.90;;;;;;5103393;28;20534;-66
2021/08/23 05:09:13;;;;;;;8.85;4.80;;;15.70;99.90;;;;;;5105011;28;20116;-66
2021/08/23 05:11:38;;;;;;;11.27;4.47;;;15.80;99.90;;;;;;5104425;27;20084;-66
2021/08/23 05:14:04;;;;;;;9.48;4.63;;;15.80;99.90;;;;;;5098558;28;20055;-65
2021/08/23 05:16:30;;;;;;;10.07;4.68;;;15.80;99.90;;;;;;5096927;28;20046;-66
2021/08/23 05:18:55;;;;;;;14.43;5.40;;;15.90;99.90;;;;;;5097021;27;20062;-66
2021/08/23 05:21:22;;;;;;;7.40;4.72;;;15.90;99.90;;;;;;5097378;28;20036;-66
2021/08/23 05:23:47;;;;;;;6.10;3.35;;;16.00;99.90;;;;;;5097856;28;20047;-66
2021/08/23 05:26:13;;;;;;;13.40;4.35;;;16.00;99.90;;;;;;5095882;28;20043;-66
2021/08/23 05:28:39;;;;;;;10.07;5.05;;;16.20;99.90;;;;;;5097859;28;20043;-66
2021/08/23 05:31:04;;;;;;;9.55;3.65;;;16.40;99.90;;;;;;5100866;27;20490;-65
2021/08/23 05:33:30;;;;;;;8.05;2.63;;;17.00;99.90;;;;;;5100281;28;20082;-67
2021/08/23 05:35:56;;;;;;;8.43;2.50;;;17.70;99.90;;;;;;5102708;28;20500;-66
2021/08/23 05:38:21;;;;;;;6.97;2.85;;;18.50;99.90;;;;;;5098740;28;20054;-66
2021/08/23 05:40:47;;;;;;;6.70;2.03;;;19.20;99.90;;;;;;5101819;27;20059;-66
2021/08/23 05:43:13;;;;;;;6.35;2.53;;;19.90;99.90;;;;;;5095647;27;20393;-67
2021/08/23 05:45:41;;;;;;;7.47;2.10;;;20.50;99.90;;;;;;5096259;28;20405;-67
2021/08/23 05:48:08;;;;;;;5.10;1.67;;;21.10;99.90;;;;;;5096060;28;20057;-66
2021/08/23 05:50:34;;;;;;;5.82;2.25;;;21.60;99.90;;;;;;5095186;28;20122;-67
2021/08/23 05:52:59;;;;;;;2.95;2.00;;;22.20;99.90;;;;;;5094473;28;20239;-67
2021/08/23 05:55:25;;;;;;;11.77;2.03;;;22.70;99.90;;;;;;5093095;28;20046;-67
2021/08/23 05:57:51;;;;;;;6.07;2.22;;;23.20;99.90;;;;;;5095397;27;20043;-67
2021/08/23 06:00:19;;;;;;;4.38;1.92;;;23.80;99.90;;;;;;5098286;27;20377;-67
2021/08/23 06:02:45;;;;;;;6.57;2.20;;;24.20;99.90;;;;;;5098624;28;20090;-67
2021/08/23 06:05:11;;;;;;;9.70;1.83;;;24.60;99.90;;;;;;5098666;28;20043;-67
2021/08/23 06:07:37;;;;;;;5.47;2.00;;;24.80;99.90;;;;;;5096612;27;20100;-67
2021/08/23 06:10:04;;;;;;;6.95;2.22;;;24.80;99.90;;;;;;5091058;27;20062;-67
2021/08/23 06:12:29;;;;;;;7.80;2.28;;;24.80;99.90;;;;;;5094851;28;20040;-67
2021/08/23 06:14:55;;;;;;;2.75;1.50;;;25.00;99.90;;;;;;5093708;28;20036;-67
2021/08/23 06:17:21;;;;;;;6.32;1.63;;;25.40;99.90;;;;;;5095536;28;20036;-67
2021/08/23 06:19:47;;;;;;;6.20;1.63;;;25.70;99.90;;;;;;5097951;28;20066;-67
2021/08/23 06:22:13;;;;;;;3.60;1.95;;;25.80;99.90;;;;;;5091584;28;20040;-67
2021/08/23 06:24:39;;;;;;;5.68;2.22;;;26.00;99.80;;;;;;5094236;28;20496;-67
2021/08/23 06:27:05;;;;;;;6.15;2.60;;;26.30;99.40;;;;;;5084900;27;20487;-67
2021/08/23 06:29:31;;;;;;;5.93;2.15;;;26.50;97.50;;;;;;5084769;28;20043;-67
2021/08/23 06:31:56;;;;;;;6.57;1.80;;;26.70;97.00;;;;;;5083559;28;20072;-67
2021/08/23 06:34:22;;;;;;;3.63;1.48;;;26.90;96.80;;;;;;5084110;27;21080;-67
2021/08/23 06:36:48;;;;;;;4.35;1.50;;;26.90;95.30;;;;;;5084021;27;20044;-67
2021/08/23 06:39:14;;;;;;;6.15;1.88;;;27.10;95.10;;;;;;5083434;28;20131;-67
2021/08/23 06:41:40;;;;;;;5.18;1.65;;;27.30;94.60;;;;;;5083789;28;20054;-67
2021/08/23 06:44:06;;;;;;;4.38;2.10;;;27.40;93.60;;;;;;5084354;28;20477;-67
2021/08/23 06:46:32;;;;;;;8.18;1.88;;;27.40;92.00;;;;;;5083461;28;20113;-67
2021/08/23 06:48:57;;;;;;;6.68;1.92;;;27.40;93.10;;;;;;5083932;28;20496;-67
2021/08/23 06:51:24;;;;;;;4.20;1.60;;;27.00;94.20;;;;;;5088214;27;20603;-67
2021/08/23 06:53:50;;;;;;;6.85;1.50;;;26.40;94.90;;;;;;5083668;28;20048;-67
2021/08/23 06:56:17;;;;;;;8.00;2.10;;;25.90;97.50;;;;;;5084448;28;20036;-67
2021/08/23 06:58:43;;;;;;;6.88;1.77;;;25.50;99.40;;;;;;5085357;27;20051;-67
2021/08/23 07:01:09;;;;;;;5.53;1.95;;;24.90;99.60;;;;;;5084654;28;20073;-67
2021/08/23 07:03:36;;;;;;;4.88;1.63;;;24.50;99.90;;;;;;5081515;28;20087;-67
2021/08/23 07:06:06;;;;;;;7.15;1.73;;;24.20;99.90;;;;;;5085258;27;20043;-67
2021/08/23 07:08:34;;;;;;;6.65;2.05;;;23.80;99.90;;;;;;5083898;28;20460;-67
2021/08/23 07:11:01;;;;;;;8.50;1.90;;;23.40;99.90;;;;;;5085424;28;20088;-66
2021/08/23 07:13:29;;;;;;;6.05;1.88;;;23.20;99.90;;;;;;5084866;28;20044;-67
2021/08/23 07:16:04;;;;;;;5.60;1.95;;;22.80;99.90;;;;;;5085331;27;20186;-67
2021/08/23 07:18:31;;;;;;;5.68;1.92;;;22.20;99.90;;;;;;5083439;28;20040;-66
2021/08/23 07:20:59;;;;;;;6.75;2.00;;;21.80;99.90;;;;;;5084356;28;20065;-66
2021/08/23 07:23:27;;;;;;;6.35;1.92;;;21.50;99.90;;;;;;5080037;28;20773;-66
2021/08/23 07:26:13;;;;;;;4.95;1.55;;;21.30;99.90;;;;;;5082441;28;21450;-66
2021/08/23 07:28:39;;;;;;;5.47;1.60;;;21.10;99.90;;;;;;5083648;28;20075;-66
2021/08/23 07:31:05;;;;;;;3.40;1.30;;;21.00;99.90;;;;;;5084652;27;20130;-66
2021/08/23 07:33:30;;;;;;;4.90;1.65;;;20.90;99.90;;;;;;5082505;28;20043;-66
2021/08/23 07:35:56;;;;;;;9.38;2.83;;;20.80;99.90;;;;;;5083806;28;20044;-66
2021/08/23 07:38:22;;;;;;;4.43;1.70;;;20.80;99.90;;;;;;5082575;28;20044;-66
2021/08/23 07:40:48;;;;;;;3.63;1.48;;;20.70;99.90;;;;;;5083358;28;20035;-66
2021/08/23 07:43:14;;;;;;;6.68;1.75;;;20.60;99.90;;;;;;5083881;28;20474;-66
2021/08/23 07:45:40;;;;;;;5.47;1.35;;;20.60;99.90;;;;;;5082554;28;20047;-66
2021/08/23 07:48:06;;;;;;;4.55;1.65;;;20.60;99.90;;;;;;5081751;28;20044;-66
2021/08/23 07:50:32;;;;;;;3.97;1.35;;;20.50;99.90;;;;;;5081246;28;20066;-66
2021/08/23 07:52:58;;;;;;;4.82;1.45;;;20.60;99.90;;;;;;5084094;28;20417;-66
2021/08/23 07:55:24;;;;;;;7.57;1.20;;;20.70;99.90;;;;;;5083087;28;20046;-66
2021/08/23 07:57:50;;;;;;;4.68;1.42;;;20.90;99.90;;;;;;5082354;28;20048;-66
2021/08/23 08:00:18;;;;;;;5.30;1.17;;;21.00;99.90;;;;;;5082970;28;20040;-66
2021/08/23 08:02:44;;;;;;;6.15;1.40;;;21.20;99.90;;;;;;5081824;28;20040;-66
2021/08/23 08:05:12;;;;;;;2.97;1.00;;;21.20;99.90;;;;;;5082418;28;20669;-66
2021/08/23 08:07:38;;;;;;;2.05;1.00;;;21.10;99.90;;;;;;5081445;28;20537;-66
2021/08/23 08:10:11;;;;;;;3.20;1.38;;;21.20;99.90;;;;;;5081881;28;20532;-67
2021/08/23 08:12:39;;;;;;;7.37;1.17;;;21.20;99.90;;;;;;5081482;28;20044;-66
2021/08/23 08:15:06;;;;;;;2.90;1.13;;;21.10;99.90;;;;;;5083181;28;20036;-66
2021/08/23 08:17:32;;;;;;;2.25;0.90;;;21.20;99.90;;;;;;5083469;28;20048;-66
2021/08/23 08:19:57;;;;;;;1.17;0.70;;;21.40;99.90;;;;;;5114531;27;20044;-66
2021/08/23 08:22:23;;;;;;;2.03;0.75;;;21.50;99.90;;;;;;5083344;28;20161;-66
2021/08/23 08:24:49;;;;;;;2.95;0.77;;;21.60;99.90;;;;;;5082092;28;20052;-66
2021/08/23 08:27:15;;;;;;;5.28;0.85;;;21.60;99.90;;;;;;5084375;28;20595;-66
2021/08/23 08:29:41;;;;;;;3.58;0.95;;;21.70;99.90;;;;;;5081831;28;20031;-66
2021/08/23 08:32:07;;;;;;;3.55;0.93;;;21.90;99.90;;;;;;5082006;28;20039;-66
2021/08/23 08:34:34;;;;;;;4.93;1.27;;;22.00;99.90;;;;;;5086770;27;20049;-66
2021/08/23 08:37:00;;;;;;;3.03;0.80;;;22.00;99.90;;;;;;5086647;27;20069;-66
2021/08/23 08:39:26;;;;;;;3.88;0.98;;;22.00;99.90;;;;;;5086114;28;20044;-66
2021/08/23 08:41:52;;;;;;;2.75;0.70;;;22.20;99.90;;;;;;5086662;28;20112;-66
2021/08/23 08:44:17;;;;;;;4.05;1.17;;;22.30;99.90;;;;;;5084803;27;20970;-66
2021/08/23 08:46:45;;;;;;;2.45;1.30;;;22.40;99.90;;;;;;5085908;28;20035;-66
2021/08/23 08:49:13;;;;;;;2.80;0.98;;;22.40;99.90;;;;;;5085895;28;20047;-66
2021/08/23 08:51:44;;;;;;;3.13;0.70;;;22.50;99.90;;;;;;5087964;28;21671;-66
2021/08/23 08:54:10;;;;;;;1.52;0.70;;;22.50;99.90;;;;;;5086258;27;20054;-66
2021/08/23 08:56:35;;;;;;;2.17;0.88;;;22.60;99.90;;;;;;5088815;28;20035;-66
2021/08/23 08:59:03;;;;;;;4.22;1.48;;;22.80;99.90;;;;;;5085946;28;20039;-66
2021/08/23 09:01:29;;;;;;;3.63;1.38;;;22.90;99.90;;;;;;5084175;27;20043;-66
2021/08/23 09:04:01;;;;;;;1.65;0.90;;;22.90;99.90;;;;;;5085214;27;20078;-66
2021/08/23 09:06:35;;;;;;;4.93;1.20;;;22.80;99.90;;;;;;5086743;28;20042;-67
2021/08/23 09:09:01;;;;;;;6.63;1.02;;;23.00;99.90;;;;;;5086098;28;20051;-66
2021/08/23 09:11:27;;;;;;;4.82;1.13;;;23.00;99.90;;;;;;5085754;28;20042;-66
2021/08/23 09:14:06;;;;;;;5.50;0.98;;;23.00;99.90;;;;;;5084910;28;20036;-66
2021/08/23 09:16:53;;;;;;;5.20;1.20;;;23.10;99.90;;;;;;5086953;28;20048;-66
2021/08/23 09:19:26;;;;;;;1.50;0.80;;;23.10;99.90;;;;;;5084777;28;20044;-66
2021/08/23 09:22:16;;;;;;;2.60;1.10;;;23.20;99.90;;;;;;5086853;27;20264;-66
2021/08/23 09:24:45;;;;;;;4.05;1.05;;;23.20;99.90;;;;;;5082549;27;20086;-66
2021/08/23 09:27:36;;;;;;;2.03;1.08;;;23.20;99.90;;;;;;5085107;28;21730;-66
2021/08/23 09:30:11;;;;;;;3.60;1.00;;;23.30;99.90;;;;;;5084993;27;20073;-66
2021/08/23 09:32:51;;;;;;;3.17;1.15;;;23.10;99.90;;;;;;5084194;27;20070;-66
2021/08/23 09:35:47;;;;;;;3.33;0.80;;;22.90;99.90;;;;;;5084512;28;20031;-66
2021/08/23 09:38:17;;;;;;;2.28;1.05;;;22.90;99.90;;;;;;5084063;28;20043;-66
2021/08/23 09:40:47;;;;;;;2.28;0.77;;;22.90;99.90;;;;;;5084587;27;20043;-66
2021/08/23 09:43:16;;;;;;;3.88;1.73;;;23.10;99.90;;;;;;5084554;28;20054;-66
2021/08/23 09:46:10;;;;;;;2.58;1.00;;;23.20;99.90;;;;;;5084371;28;20043;-66
2021/08/23 09:48:38;;;;;;;5.35;1.23;;;23.30;99.90;;;;;;5084798;27;20137;-66
2021/08/23 09:51:04;;;;;;;3.58;1.08;;;23.30;99.90;;;;;;5087349;28;20090;-66
2021/08/23 09:53:32;;;;;;;2.03;0.88;;;23.50;99.90;;;;;;5082917;28;20046;-66
2021/08/23 09:55:58;;;;;;;7.85;1.65;;;23.60;99.90;;;;;;5085974;27;20124;-66
2021/08/23 09:58:25;;;;;;;4.55;1.52;;;23.60;99.90;;;;;;5086241;28;20101;-66
2021/08/23 10:00:54;;;;;;;3.80;1.38;;;23.70;98.20;;;;;;5083905;28;20048;-66
2021/08/23 10:03:24;;;;;;;1.85;1.10;;;23.70;99.90;;;;;;5082623;27;20122;-66
2021/08/23 10:05:52;;;;;;;4.70;1.40;;;23.80;99.90;;;;;;5085035;28;20138;-66
2021/08/23 10:08:22;;;;;;;2.35;0.90;;;24.00;99.50;;;;;;5082605;27;20035;-66
2021/08/23 10:10:49;;;;;;;2.50;1.02;;;23.80;94.20;;;;;;5083412;28;20035;-66
2021/08/23 10:13:15;;;;;;;1.75;0.98;;;23.70;95.80;;;;;;5084922;27;20118;-66
2021/08/23 10:15:42;;;;;;;1.88;0.90;;;23.50;94.40;;;;;;5083787;27;20043;-66
2021/08/23 10:18:08;;;;;;;3.08;0.85;;;23.50;91.50;;;;;;5082934;28;20124;-66
2021/08/23 10:20:36;;;;;;;5.85;1.20;;;23.50;95.70;;;;;;5085117;28;20039;-66
2021/08/23 10:23:02;;;;;;;3.75;1.02;;;23.50;95.00;;;;;;5087233;28;20093;-66
2021/08/23 10:25:29;;;;;;;2.67;0.60;;;23.60;96.60;;;;;;5085423;28;20047;-66
2021/08/23 10:28:12;;;;;;;1.90;0.70;;;23.60;92.50;;;;;;5086367;28;20047;-66
2021/08/23 10:30:39;;;;;;;1.08;0.52;;;23.60;91.10;;;;;;5085910;28;20044;-66
2021/08/23 10:33:18;;;;;;;1.85;0.70;;;23.60;89.40;;;;;;5085227;28;20175;-66
2021/08/23 10:35:46;;;;;;;2.10;1.08;;;23.50;84.60;;;;;;5084397;28;20131;-66
2021/08/23 10:38:20;;;;;;;2.47;0.77;;;23.50;90.10;;;;;;5083743;28;20723;-66
2021/08/23 10:40:48;;;;;;;4.28;0.98;;;23.10;88.90;;;;;;5084988;28;20102;-66
2021/08/23 10:43:16;;;;;;;1.92;0.75;;;23.10;90.80;;;;;;5080161;28;20107;-66
2021/08/23 10:45:42;;;;;;;1.83;0.82;;;23.10;90.60;;;;;;5084181;28;20043;-66
2021/08/23 10:48:19;;;;;;;3.42;0.75;;;23.10;91.90;;;;;;5084375;28;20105;-66
2021/08/23 10:50:59;;;;;;;1.67;0.88;;;23.00;84.70;;;;;;5085943;28;20039;-66
2021/08/23 10:53:38;;;;;;;2.78;0.73;;;22.90;87.10;;;;;;5083789;28;20056;-66
2021/08/23 10:56:21;;;;;;;2.08;0.55;;;22.80;93.60;;;;;;5083502;28;20052;-66
2021/08/23 10:58:49;;;;;;;2.80;0.65;;;23.00;97.70;;;;;;5081715;27;20043;-66
2021/08/23 11:01:22;;;;;;;2.08;0.88;;;23.10;94.50;;;;;;5082245;28;20127;-66
2021/08/23 11:04:05;;;;;;;1.80;0.95;;;23.20;92.70;;;;;;5082755;27;20044;-66
2021/08/23 11:06:35;;;;;;;1.10;0.63;;;23.30;93.80;;;;;;5086006;28;20048;-66
2021/08/23 11:09:05;;;;;;;1.58;0.70;;;23.20;93.50;;;;;;5081924;28;20096;-66
2021/08/23 11:11:35;;;;;;;3.97;1.10;;;23.30;92.60;;;;;;5116769;27;20044;-66
2021/08/23 11:14:02;;;;;;;2.08;0.80;;;23.40;90.10;;;;;;5084974;28;20044;-66
2021/08/23 11:16:27;;;;;;;2.47;1.10;;;23.40;80.60;;;;;;5084074;27;20044;-66
2021/08/23 11:18:54;;;;;;;1.15;0.77;;;23.40;73.50;;;;;;5083743;28;22024;-66
2021/08/23 11:21:24;;;;;;;1.67;0.95;;;23.50;78.10;;;;;;5084706;28;20478;-66
2021/08/23 11:23:50;;;;;;;1.40;1.05;;;23.50;79.00;;;;;;5093543;28;20067;-66
2021/08/23 11:26:25;;;;;;;2.80;1.10;;;23.50;79.50;;;;;;5096243;28;20470;-66
2021/08/23 11:28:50;;;;;;;1.65;1.17;;;23.50;84.00;;;;;;5095204;28;20036;-66
2021/08/23 11:31:25;;;;;;;2.38;0.93;;;23.50;81.70;;;;;;5094403;27;20127;-66
2021/08/23 11:33:50;;;;;;;1.35;1.08;;;23.40;82.50;;;;;;5093862;28;20476;-66
2021/08/23 11:36:19;;;;;;;1.52;0.70;;;23.50;86.80;;;;;;5093792;28;20059;-66
2021/08/23 11:38:44;;;;;;;3.42;0.90;;;23.60;84.20;;;;;;5095181;28;20028;-66
2021/08/23 11:41:14;;;;;;;1.45;1.00;;;23.60;90.60;;;;;;5095347;28;20043;-66
2021/08/23 11:43:41;;;;;;;2.15;1.10;;;23.50;88.10;;;;;;5095541;27;20044;-66
2021/08/23 11:46:07;;;;;;;4.45;0.68;;;23.50;87.50;;;;;;5093674;28;20071;-66
2021/08/23 11:48:34;;;;;;;3.20;0.88;;;23.40;86.90;;;;;;5094577;28;20047;-66
2021/08/23 11:51:00;;;;;;;1.63;0.80;;;23.50;89.40;;;;;;5125065;27;20393;-66
2021/08/23 11:53:30;;;;;;;2.00;0.70;;;23.50;89.70;;;;;;5092865;28;20523;-66
2021/08/23 11:56:07;;;;;;;2.00;0.80;;;23.60;90.30;;;;;;5093405;28;20062;-66
2021/08/23 11:58:38;;;;;;;1.92;1.05;;;23.50;85.80;;;;;;5093435;28;20054;-66
2021/08/23 12:01:07;;;;;;;1.65;0.47;;;23.50;86.80;;;;;;5092356;28;20068;-66
2021/08/23 12:03:33;;;;;;;1.42;0.77;;;23.50;82.10;;;;;;5093001;28;20043;-66
2021/08/23 12:06:04;;;;;;;1.55;0.85;;;23.50;83.60;;;;;;5095663;28;20039;-66
2021/08/23 12:08:34;;;;;;;0.73;0.57;;;23.50;83.40;;;;;;5092141;28;20040;-66
2021/08/23 12:11:17;;;;;;;1.65;0.85;;;23.50;79.80;;;;;;5091738;28;20084;-66
2021/08/23 12:13:47;;;;;;;2.05;0.70;;;23.40;77.90;;;;;;5096217;28;20040;-66
2021/08/23 12:16:33;;;;;;;2.13;0.80;;;23.40;82.10;;;;;;5127979;27;20547;-66
2021/08/23 12:19:07;;;;;;;1.95;0.68;;;23.40;84.70;;;;;;5093015;28;20089;-66
2021/08/23 12:21:33;;;;;;;3.72;0.75;;;23.50;81.50;;;;;;5093920;28;20429;-66
2021/08/23 12:24:01;;;;;;;2.50;0.50;;;23.50;81.70;;;;;;5093114;28;20031;-66
2021/08/23 12:26:43;;;;;;;1.30;0.80;;;23.60;78.90;;;;;;5096066;28;20457;-66
2021/08/23 12:29:18;;;;;;;1.10;0.70;;;23.30;85.60;;;;;;5092676;28;20036;-66
2021/08/23 12:31:54;;;;;;;2.57;0.80;;;23.40;89.70;;;;;;5095099;28;20493;-66
2021/08/23 12:34:23;;;;;;;3.92;0.95;;;23.50;84.70;;;;;;5093755;28;20105;-66
2021/08/23 12:36:49;;;;;;;1.38;0.80;;;23.60;90.10;;;;;;5097146;28;20035;-66
2021/08/23 12:39:15;;;;;;;1.15;0.50;;;23.50;87.40;;;;;;5093062;28;20085;-66
2021/08/23 12:41:43;;;;;;;1.45;0.60;;;23.50;88.90;;;;;;5093221;28;20040;-66
2021/08/23 12:44:09;;;;;;;2.50;1.00;;;23.40;88.90;;;;;;5091966;28;20032;-66
2021/08/23 12:46:35;;;;;;;3.63;1.02;;;23.50;89.90;;;;;;5093180;28;20093;-66